Time;durP1;ratioP1;P1;durP2;ratioP2;P2;SDS_P1;SDS_P2;PMS_P1;PMS_P2;Temp;Humidity;BMP_temperature;BMP_pressure;BME280_temperature;BME280_humidity;BME280_pressure;Samples;Min_cycle;Max_cycle;Signal;HPM_P1;HPM_P2
2023/07/11 00:04:50;;;;;;;4.82;3.00;;;30.20;79.80;;;;;;10903495;32;20043;-72
2023/07/11 00:10:52;;;;;;;4.37;2.87;;;30.20;80.20;;;;;;10900866;32;20058;-72
2023/07/11 00:16:54;;;;;;;4.32;3.03;;;30.10;79.80;;;;;;10903818;32;20538;-72
2023/07/11 00:22:56;;;;;;;4.37;3.08;;;30.20;79.60;;;;;;10887334;32;20027;-72
2023/07/11 00:29:19;;;;;;;4.97;2.97;;;30.20;79.90;;;;;;10893345;32;20028;-72
2023/07/11 00:35:21;;;;;;;5.47;3.15;;;30.20;79.50;;;;;;10910102;32;20024;-72
2023/07/11 00:41:23;;;;;;;4.43;2.95;;;30.20;79.80;;;;;;10910598;32;20019;-72
2023/07/11 00:47:27;;;;;;;6.47;2.90;;;30.10;80.30;;;;;;10909101;32;20019;-72
2023/07/11 00:53:30;;;;;;;6.15;3.65;;;30.10;80.20;;;;;;10895470;32;20057;-72
2023/07/11 00:59:34;;;;;;;4.80;2.95;;;29.90;80.00;;;;;;10909849;32;20023;-72
2023/07/11 01:05:37;;;;;;;5.20;3.62;;;29.80;80.00;;;;;;10894826;32;20039;-72
2023/07/11 01:11:58;;;;;;;4.85;3.45;;;29.70;79.90;;;;;;10908911;32;20038;-72
2023/07/11 01:17:59;;;;;;;5.20;3.55;;;29.70;79.70;;;;;;10896041;32;20406;-71
2023/07/11 01:24:01;;;;;;;6.35;3.33;;;29.60;79.60;;;;;;10907879;32;20007;-72
2023/07/11 01:30:06;;;;;;;6.62;4.28;;;29.70;79.60;;;;;;10904819;32;20026;-72
2023/07/11 01:36:08;;;;;;;4.30;3.35;;;29.50;79.80;;;;;;10894752;32;20019;-72
2023/07/11 01:42:10;;;;;;;7.62;4.80;;;29.50;79.70;;;;;;10907096;32;20027;-72
2023/07/11 01:48:12;;;;;;;7.60;4.10;;;29.50;79.60;;;;;;10906985;32;20019;-72
2023/07/11 01:54:14;;;;;;;8.43;4.28;;;29.40;79.50;;;;;;10907392;32;20344;-72
2023/07/11 02:00:16;;;;;;;6.47;3.47;;;29.30;79.50;;;;;;10907780;32;20024;-72
2023/07/11 02:06:25;;;;;;;6.57;4.72;;;29.30;79.50;;;;;;10907445;32;20007;-72
2023/07/11 02:12:27;;;;;;;4.80;3.78;;;29.40;79.80;;;;;;10906200;32;20051;-72
2023/07/11 02:18:29;;;;;;;7.60;4.55;;;29.30;79.70;;;;;;10905866;32;20041;-72
2023/07/11 02:24:31;;;;;;;8.00;4.50;;;29.20;79.80;;;;;;10901788;32;20015;-72
2023/07/11 02:30:34;;;;;;;9.27;6.93;;;29.10;79.80;;;;;;10905488;32;20012;-72
2023/07/11 02:36:36;;;;;;;8.68;5.95;;;29.10;79.50;;;;;;10879378;32;20038;-72
2023/07/11 02:42:37;;;;;;;7.87;6.47;;;29.10;79.40;;;;;;10891753;32;20026;-72
2023/07/11 02:48:40;;;;;;;8.07;6.25;;;29.00;79.30;;;;;;10891723;32;20020;-72
2023/07/11 02:54:42;;;;;;;9.80;6.80;;;28.90;79.50;;;;;;10904428;32;20054;-72
2023/07/11 03:00:53;;;;;;;11.18;6.00;;;28.90;79.60;;;;;;10904623;32;20023;-72
2023/07/11 03:06:56;;;;;;;9.60;7.62;;;28.80;79.70;;;;;;10905603;32;20027;-71
2023/07/11 03:12:58;;;;;;;8.23;5.45;;;28.80;79.60;;;;;;10904288;32;20330;-71
2023/07/11 03:19:01;;;;;;;8.65;6.55;;;28.80;79.70;;;;;;10904134;32;20023;-72
2023/07/11 03:25:03;;;;;;;10.57;7.85;;;28.80;80.10;;;;;;10904066;32;20330;-71
2023/07/11 03:31:05;;;;;;;9.77;7.40;;;28.90;80.00;;;;;;10889895;32;20031;-71
2023/07/11 03:37:07;;;;;;;16.15;9.25;;;28.80;80.00;;;;;;10903730;32;20077;-71
2023/07/11 03:43:09;;;;;;;10.35;8.15;;;28.70;80.00;;;;;;10903773;32;20015;-72
2023/07/11 03:49:11;;;;;;;11.95;7.62;;;28.80;79.80;;;;;;10903597;32;20024;-72
2023/07/11 03:55:12;;;;;;;9.80;5.70;;;28.70;79.80;;;;;;10903536;32;20401;-72
2023/07/11 04:01:15;;;;;;;9.38;6.97;;;28.60;79.90;;;;;;10903522;32;20318;-71
2023/07/11 04:07:17;;;;;;;9.20;7.53;;;28.70;80.00;;;;;;10910488;32;20051;-72
2023/07/11 04:13:19;;;;;;;12.25;6.85;;;28.80;80.10;;;;;;10907563;32;20440;-71
2023/07/11 04:19:21;;;;;;;7.93;5.10;;;28.70;80.40;;;;;;10910029;32;20349;-71
2023/07/11 04:25:23;;;;;;;6.97;4.90;;;28.70;80.40;;;;;;10909748;32;20007;-71
2023/07/11 04:31:26;;;;;;;10.57;5.22;;;28.70;80.90;;;;;;10909731;32;20295;-71
2023/07/11 04:37:28;;;;;;;5.93;4.75;;;28.80;80.80;;;;;;10909282;32;20031;-71
2023/07/11 04:43:31;;;;;;;6.68;5.32;;;28.80;81.20;;;;;;10909344;32;20349;-71
2023/07/11 04:49:33;;;;;;;6.97;5.07;;;28.80;81.50;;;;;;10910156;32;20024;-71
2023/07/11 04:55:35;;;;;;;9.18;6.85;;;28.80;81.80;;;;;;10896019;32;20121;-71
2023/07/11 05:01:37;;;;;;;8.27;6.10;;;28.80;81.90;;;;;;10908614;32;20318;-71
2023/07/11 05:07:39;;;;;;;10.45;8.07;;;28.90;81.60;;;;;;10908303;32;20015;-72
2023/07/11 05:13:43;;;;;;;6.95;5.97;;;28.90;81.40;;;;;;10908137;32;20046;-72
2023/07/11 05:19:45;;;;;;;9.07;7.10;;;29.00;81.30;;;;;;10894624;32;20042;-71
2023/07/11 05:25:47;;;;;;;8.35;6.22;;;29.10;81.10;;;;;;10907742;32;20051;-71
2023/07/11 05:31:49;;;;;;;7.00;5.72;;;29.20;81.00;;;;;;10907439;32;20357;-72
2023/07/11 05:37:51;;;;;;;7.40;5.65;;;29.30;81.00;;;;;;10907313;32;20054;-72
2023/07/11 05:43:54;;;;;;;7.60;6.15;;;29.30;81.20;;;;;;10907152;32;20012;-71
2023/07/11 05:49:56;;;;;;;7.25;5.90;;;29.30;81.60;;;;;;10903641;32;20031;-71
2023/07/11 05:55:58;;;;;;;9.00;5.30;;;29.50;81.50;;;;;;10906680;32;20085;-71
2023/07/11 06:02:00;;;;;;;7.53;5.20;;;29.60;81.30;;;;;;10906389;32;20046;-72
2023/07/11 06:08:03;;;;;;;7.30;5.62;;;29.70;81.50;;;;;;10906198;32;20015;-71
2023/07/11 06:14:05;;;;;;;7.72;5.32;;;29.80;81.90;;;;;;10906021;32;20089;-72
2023/07/11 06:20:09;;;;;;;7.70;5.60;;;29.80;82.20;;;;;;10866017;32;20342;-73
2023/07/11 06:26:11;;;;;;;7.95;5.97;;;29.80;81.90;;;;;;10868642;32;20043;-72
2023/07/11 06:32:13;;;;;;;8.90;6.47;;;29.80;82.10;;;;;;10868264;32;20015;-71
2023/07/11 06:38:16;;;;;;;12.37;5.10;;;29.90;82.00;;;;;;10869044;32;20020;-71
2023/07/11 06:44:18;;;;;;;7.62;5.78;;;30.00;81.80;;;;;;10868237;32;20069;-71
2023/07/11 06:50:20;;;;;;;11.55;6.35;;;30.20;81.60;;;;;;10853682;32;20023;-73
2023/07/11 06:56:23;;;;;;;10.48;5.93;;;30.20;81.30;;;;;;10868069;32;20042;-71
2023/07/11 07:02:27;;;;;;;6.12;4.45;;;30.30;81.20;;;;;;10868522;32;20323;-72
2023/07/11 07:08:34;;;;;;;7.78;5.53;;;30.40;81.30;;;;;;10854332;32;20034;-71
2023/07/11 07:14:39;;;;;;;6.07;4.43;;;30.50;81.40;;;;;;10855283;32;20371;-73
2023/07/11 07:20:46;;;;;;;7.68;5.57;;;30.60;81.40;;;;;;10866949;32;20024;-72
2023/07/11 07:26:49;;;;;;;7.30;5.57;;;30.60;81.20;;;;;;10871286;27;20381;31
2023/07/11 07:32:51;;;;;;;8.00;5.53;;;30.70;81.00;;;;;;10902785;32;20398;-72
2023/07/11 07:38:53;;;;;;;6.68;4.80;;;30.80;80.80;;;;;;10908546;32;20027;-72
2023/07/11 07:44:55;;;;;;;10.10;5.47;;;30.90;80.40;;;;;;10912117;32;20046;-72
2023/07/11 07:51:20;;;;;;;5.50;4.22;;;31.00;80.20;;;;;;10909685;32;20322;-72
2023/07/11 07:57:22;;;;;;;7.40;4.57;;;31.10;79.50;;;;;;10912229;32;20015;-72
2023/07/11 08:03:26;;;;;;;7.90;4.50;;;31.20;79.60;;;;;;10912046;32;20045;-72
2023/07/11 08:09:32;;;;;;;10.47;5.53;;;31.30;79.10;;;;;;10910929;32;20015;-73
2023/07/11 08:15:37;;;;;;;7.07;4.68;;;31.40;78.70;;;;;;10910427;32;20389;-72
2023/07/11 08:21:40;;;;;;;6.37;4.65;;;31.40;77.70;;;;;;10896378;32;20058;-73
2023/07/11 08:27:44;;;;;;;9.68;4.72;;;31.60;77.50;;;;;;10910781;32;20019;-73
2023/07/11 08:33:50;;;;;;;7.70;4.93;;;31.70;76.80;;;;;;10910764;32;20066;-73
2023/07/11 08:39:53;;;;;;;8.45;3.65;;;31.80;76.40;;;;;;10893816;32;20035;-73
2023/07/11 08:46:10;;;;;;;7.62;5.15;;;31.80;76.70;;;;;;10909280;32;20314;-73
2023/07/11 08:52:14;;;;;;;7.55;5.18;;;31.90;75.60;;;;;;10909460;32;20027;-73
2023/07/11 08:58:36;;;;;;;7.95;5.12;;;31.90;74.80;;;;;;10910089;32;20023;-74
2023/07/11 09:04:45;;;;;;;7.30;5.10;;;32.10;74.20;;;;;;10909222;32;20023;-73
2023/07/11 09:10:57;;;;;;;5.60;4.03;;;32.20;74.80;;;;;;10910215;32;20023;-72
2023/07/11 09:17:10;;;;;;;8.77;4.78;;;32.20;73.70;;;;;;10909313;32;20357;-72
2023/07/11 09:23:38;;;;;;;7.75;5.22;;;32.30;72.70;;;;;;10905938;32;20020;-73
2023/07/11 09:29:41;;;;;;;;;;;32.40;72.40;;;;;;10908366;32;20011;-73
2023/07/11 09:35:44;;;;;;;9.63;6.03;;;32.50;72.30;;;;;;10896092;32;19969;-73
2023/07/11 09:42:01;;;;;;;7.30;4.40;;;32.60;72.60;;;;;;10895851;32;20042;-73
2023/07/11 09:48:09;;;;;;;7.07;4.43;;;32.80;73.60;;;;;;10908924;32;20012;-73
2023/07/11 09:54:27;;;;;;;6.45;4.40;;;32.90;72.30;;;;;;10876844;32;20138;-73
2023/07/11 10:00:29;;;;;;;13.98;6.22;;;33.10;71.70;;;;;;10903630;32;20029;-73
2023/07/11 10:06:52;;;;;;;10.93;7.95;;;33.30;71.20;;;;;;10894241;32;20015;-71
2023/07/11 10:12:54;;;;;;;10.10;5.65;;;33.30;71.20;;;;;;10906730;32;20015;-73
2023/07/11 10:18:56;;;;;;;6.87;4.65;;;33.40;71.30;;;;;;10906715;32;20042;-73
2023/07/11 10:25:22;;;;;;;6.78;4.82;;;33.40;70.30;;;;;;10906514;32;20345;-72
2023/07/11 10:31:34;;;;;;;6.67;4.37;;;33.40;69.70;;;;;;10905375;32;20042;-73
2023/07/11 10:37:39;;;;;;;10.57;5.70;;;33.60;68.90;;;;;;10906488;32;20045;-73
2023/07/11 10:43:42;;;;;;;9.23;5.25;;;33.80;68.20;;;;;;10893146;32;20011;-72
2023/07/11 10:49:47;;;;;;;7.03;4.07;;;33.80;67.40;;;;;;10892941;32;20035;-73
2023/07/11 10:56:16;;;;;;;6.03;4.20;;;33.90;66.80;;;;;;10906614;32;20059;-72
2023/07/11 11:02:41;;;;;;;8.05;4.07;;;33.90;66.90;;;;;;10901754;32;20039;-73
2023/07/11 11:09:19;;;;;;;7.40;5.35;;;34.10;69.10;;;;;;10905209;32;20027;-70
2023/07/11 11:15:27;;;;;;;8.45;4.55;;;34.10;68.20;;;;;;10739439;33;20434;-73
2023/07/11 11:21:39;;;;;;;7.18;4.20;;;34.30;67.70;;;;;;10752164;33;20068;-72
2023/07/11 11:27:59;;;;;;;5.68;3.62;;;34.30;65.60;;;;;;10753276;33;20028;-73
2023/07/11 11:34:18;;;;;;;6.43;3.83;;;34.60;65.40;;;;;;10739892;33;20032;-72
2023/07/11 11:40:24;;;;;;;6.22;3.62;;;34.70;65.80;;;;;;10752754;33;20175;-73
2023/07/11 11:46:27;;;;;;;5.28;3.45;;;34.70;65.00;;;;;;10758736;32;20316;-73
2023/07/11 11:52:34;;;;;;;6.72;3.50;;;34.90;63.90;;;;;;10867656;32;20073;-73
2023/07/11 11:58:51;;;;;;;7.18;4.15;;;35.20;62.50;;;;;;10867620;32;20055;-72
2023/07/11 12:05:00;;;;;;;7.93;3.92;;;35.30;61.60;;;;;;10869418;32;20022;-73
2023/07/11 12:11:19;;;;;;;6.07;3.55;;;35.20;63.80;;;;;;10904552;32;20077;-73
2023/07/11 12:17:33;;;;;;;6.37;3.33;;;35.10;63.90;;;;;;10903547;32;20015;-72
2023/07/11 12:23:42;;;;;;;7.53;3.08;;;35.20;63.80;;;;;;10905976;32;20042;-73
2023/07/11 12:29:47;;;;;;;11.18;4.55;;;35.30;63.30;;;;;;10910796;32;20038;-73
2023/07/11 12:36:27;;;;;;;7.68;3.95;;;35.50;62.80;;;;;;10911469;32;20077;-72
2023/07/11 12:42:53;;;;;;;5.22;3.05;;;35.40;61.70;;;;;;10758554;33;20060;-73
2023/07/11 12:48:56;;;;;;;6.20;4.60;;;35.50;60.80;;;;;;10758572;33;20029;-69
2023/07/11 12:55:02;;;;;;;4.43;2.70;;;35.50;62.90;;;;;;10756895;33;20021;-72
2023/07/11 13:01:30;;;;;;;5.47;2.83;;;35.40;62.90;;;;;;10757602;33;20384;-73
2023/07/11 13:07:32;;;;;;;5.05;3.20;;;35.50;61.40;;;;;;10756856;33;20063;-72
2023/07/11 13:13:38;;;;;;;6.47;3.12;;;35.60;61.00;;;;;;10764035;32;20051;-72
2023/07/11 13:19:41;;;;;;;7.50;5.18;;;35.70;59.30;;;;;;10870720;32;20024;-72
2023/07/11 13:25:43;;;;;;;6.37;3.75;;;35.70;59.50;;;;;;10870622;32;20038;-71
2023/07/11 13:31:48;;;;;;;6.05;3.90;;;35.60;59.60;;;;;;10870101;32;20049;-72
2023/07/11 13:37:50;;;;;;;8.60;4.93;;;35.40;60.00;;;;;;10869207;32;20024;-72
2023/07/11 13:43:58;;;;;;;8.93;4.40;;;35.30;59.70;;;;;;10870090;32;20050;-72
2023/07/11 13:50:04;;;;;;;6.22;4.37;;;35.40;60.80;;;;;;10856082;32;20054;-75
2023/07/11 13:56:09;;;;;;;10.33;4.20;;;35.30;61.60;;;;;;10869503;32;20031;-73
2023/07/11 14:02:17;;;;;;;5.43;3.70;;;35.30;63.20;;;;;;10868985;32;20116;-72
2023/07/11 14:08:19;;;;;;;6.55;3.60;;;35.20;60.90;;;;;;10868961;32;20048;-72
2023/07/11 14:14:22;;;;;;;7.32;4.25;;;35.30;61.30;;;;;;10855325;32;20058;-72
2023/07/11 14:20:27;;;;;;;7.53;3.95;;;35.40;60.60;;;;;;10842911;32;20330;-73
2023/07/11 14:26:29;;;;;;;9.23;6.12;;;35.40;59.30;;;;;;10851897;32;20050;-74
2023/07/11 14:32:33;;;;;;;5.00;3.42;;;35.40;60.30;;;;;;10868027;32;20015;-73
2023/07/11 14:38:35;;;;;;;5.40;3.10;;;35.30;60.30;;;;;;10867871;32;20028;-73
2023/07/11 14:44:37;;;;;;;8.13;3.60;;;35.30;59.90;;;;;;10867811;32;20019;-72
2023/07/11 14:50:39;;;;;;;10.38;5.85;;;35.40;58.40;;;;;;10863402;32;20050;-73
2023/07/11 14:56:41;;;;;;;5.87;4.20;;;35.40;58.30;;;;;;10863760;32;20334;-73
2023/07/11 15:02:44;;;;;;;5.65;3.78;;;35.30;60.20;;;;;;10853550;32;20024;-73
2023/07/11 15:08:46;;;;;;;6.90;3.60;;;35.10;61.80;;;;;;10867160;32;20020;-72
2023/07/11 15:14:48;;;;;;;11.48;4.75;;;35.20;61.40;;;;;;10867070;32;20027;-73
2023/07/11 15:20:50;;;;;;;7.87;4.32;;;35.10;59.80;;;;;;10866939;32;20015;-73
2023/07/11 15:26:53;;;;;;;7.70;5.90;;;35.10;59.60;;;;;;10869283;27;20335;-73
2023/07/11 15:32:55;;;;;;;6.60;4.50;;;35.00;60.70;;;;;;10903501;32;20019;-72
2023/07/11 15:38:57;;;;;;;13.00;5.10;;;34.90;60.10;;;;;;10902194;32;20047;-73
2023/07/11 15:45:03;;;;;;;6.53;4.90;;;35.00;61.70;;;;;;10904150;32;20074;-73
2023/07/11 15:51:05;;;;;;;6.85;4.47;;;35.00;62.40;;;;;;10901083;32;20020;-73
2023/07/11 15:57:25;;;;;;;6.65;4.20;;;35.00;61.10;;;;;;10899676;32;20050;-73
2023/07/11 16:03:28;;;;;;;10.88;5.72;;;35.10;59.70;;;;;;10897679;32;20019;-73
2023/07/11 16:09:30;;;;;;;16.83;4.53;;;35.00;62.80;;;;;;10910649;32;20046;-73
2023/07/11 16:15:33;;;;;;;5.50;3.25;;;35.00;62.80;;;;;;10910346;32;20019;-73
2023/07/11 16:21:35;;;;;;;6.25;3.72;;;35.00;60.60;;;;;;10910248;32;20333;-72
2023/07/11 16:27:38;;;;;;;6.62;4.50;;;35.00;61.20;;;;;;10892406;32;20028;-73
2023/07/11 16:33:41;;;;;;;4.65;3.10;;;35.00;62.20;;;;;;10908981;32;20073;-74
2023/07/11 16:39:43;;;;;;;7.03;4.28;;;34.90;61.50;;;;;;10904178;32;20053;-72
2023/07/11 16:45:46;;;;;;;11.52;5.10;;;35.10;61.50;;;;;;10906005;32;20105;-72
2023/07/11 16:51:49;;;;;;;6.90;4.40;;;34.90;63.50;;;;;;10906309;32;20330;-72
2023/07/11 16:57:52;;;;;;;14.15;6.03;;;34.80;63.20;;;;;;10907079;32;20377;-72
2023/07/11 17:03:54;;;;;;;6.12;3.47;;;34.80;63.30;;;;;;10906671;32;20027;-71
2023/07/11 17:09:57;;;;;;;4.55;3.62;;;34.80;63.10;;;;;;10906193;32;20015;-72
2023/07/11 17:16:04;;;;;;;8.30;3.03;;;34.80;62.80;;;;;;10907752;32;20050;-72
2023/07/11 17:22:13;;;;;;;10.25;3.92;;;34.90;62.30;;;;;;10907977;32;20329;-72
2023/07/11 17:28:21;;;;;;;7.60;5.50;;;34.80;62.10;;;;;;10907764;32;20019;-72
2023/07/11 17:34:24;;;;;;;6.78;3.95;;;34.70;63.00;;;;;;10907699;32;20011;-72
2023/07/11 17:40:27;;;;;;;6.90;4.28;;;34.60;63.40;;;;;;10907366;32;20024;-72
2023/07/11 17:46:29;;;;;;;5.60;3.72;;;34.40;63.70;;;;;;10907013;32;20053;-71
2023/07/11 17:52:31;;;;;;;7.82;4.03;;;34.40;63.80;;;;;;10906898;32;20015;-72
2023/07/11 17:58:33;;;;;;;5.43;3.60;;;34.50;64.30;;;;;;10906500;32;20023;-71
2023/07/11 18:04:35;;;;;;;6.62;4.53;;;35.00;63.70;;;;;;10904015;32;20027;-70
2023/07/11 18:10:37;;;;;;;8.75;3.62;;;35.00;65.00;;;;;;10906412;32;20295;-71
2023/07/11 18:16:40;;;;;;;5.05;2.95;;;34.50;67.10;;;;;;10906161;32;20027;-71
2023/07/11 18:22:43;;;;;;;5.78;3.47;;;34.10;68.30;;;;;;10902662;32;20023;-72
2023/07/11 18:28:46;;;;;;;4.80;2.80;;;33.90;68.90;;;;;;10904444;32;20023;-71
2023/07/11 18:34:50;;;;;;;2.42;1.95;;;33.70;69.30;;;;;;10890797;32;20353;-71
2023/07/11 18:40:52;;;;;;;4.53;2.92;;;33.60;70.00;;;;;;10891243;32;20035;-72
2023/07/11 18:46:54;;;;;;;9.48;3.33;;;33.30;70.70;;;;;;10905275;32;20016;-72
2023/07/11 18:52:57;;;;;;;7.87;3.20;;;33.10;71.40;;;;;;10905020;32;20053;-72
2023/07/11 18:58:59;;;;;;;5.65;2.53;;;33.10;71.80;;;;;;10887569;32;20027;-72
2023/07/11 19:05:02;;;;;;;3.53;2.15;;;33.00;72.20;;;;;;10901073;32;20050;-70
2023/07/11 19:11:04;;;;;;;9.00;3.00;;;32.90;72.50;;;;;;10900257;32;20063;-72
2023/07/11 19:17:29;;;;;;;5.28;2.37;;;32.80;72.80;;;;;;10891090;32;20027;-72
2023/07/11 19:23:33;;;;;;;4.07;2.10;;;32.70;73.30;;;;;;10878161;32;20045;-72
2023/07/11 19:29:35;;;;;;;3.42;1.90;;;32.70;73.90;;;;;;10903955;32;20015;-72
2023/07/11 19:35:39;;;;;;;2.30;1.60;;;32.70;74.00;;;;;;10908594;32;20042;-72
2023/07/11 19:41:41;;;;;;;4.15;2.60;;;32.70;74.00;;;;;;10908950;32;20028;-72
2023/07/11 19:47:45;;;;;;;8.68;3.00;;;32.70;74.10;;;;;;10910328;32;20023;-72
2023/07/11 19:53:47;;;;;;;1.92;1.30;;;32.70;74.10;;;;;;10911178;32;20354;-72
2023/07/11 19:59:49;;;;;;;4.03;2.30;;;32.60;74.20;;;;;;10910579;32;20019;-72
2023/07/11 20:05:52;;;;;;;9.55;2.12;;;32.60;74.90;;;;;;10908828;32;20023;-71
2023/07/11 20:11:54;;;;;;;3.28;2.00;;;32.40;75.80;;;;;;10907914;32;20019;-71
2023/07/11 20:17:56;;;;;;;5.80;2.17;;;32.30;76.10;;;;;;10909732;32;20402;-72
2023/07/11 20:24:03;;;;;;;5.85;2.55;;;32.20;76.40;;;;;;10909745;32;20046;-72
2023/07/11 20:30:28;;;;;;;3.33;2.15;;;32.20;76.50;;;;;;10909720;32;20340;-72
2023/07/11 20:36:30;;;;;;;7.10;2.65;;;32.20;76.20;;;;;;10895821;32;20059;-71
2023/07/11 20:42:33;;;;;;;4.47;2.25;;;32.20;76.40;;;;;;10909471;32;20041;-71
2023/07/11 20:48:37;;;;;;;5.00;2.08;;;32.00;76.80;;;;;;10906701;32;20042;-72
2023/07/11 20:54:40;;;;;;;2.78;1.85;;;32.00;77.10;;;;;;10909143;32;20046;-70
2023/07/11 21:00:43;;;;;;;5.70;3.72;;;31.90;77.30;;;;;;10908924;32;20023;-72
2023/07/11 21:06:45;;;;;;;4.78;2.95;;;31.80;77.90;;;;;;10908756;32;20038;-71
2023/07/11 21:12:47;;;;;;;8.50;3.47;;;31.60;78.50;;;;;;10908622;32;20034;-71
2023/07/11 21:18:50;;;;;;;3.97;2.60;;;31.50;78.70;;;;;;10908239;32;20035;-70
2023/07/11 21:24:52;;;;;;;6.30;2.58;;;31.50;78.60;;;;;;10908066;32;20358;-72
2023/07/11 21:30:59;;;;;;;2.10;1.17;;;31.60;78.50;;;;;;10907780;32;20435;-71
2023/07/11 21:37:02;;;;;;;5.95;2.30;;;31.50;78.40;;;;;;10907690;32;20345;-71
2023/07/11 21:43:04;;;;;;;3.42;2.15;;;31.50;78.50;;;;;;10907562;32;20023;-71
2023/07/11 21:49:10;;;;;;;5.05;2.70;;;31.50;78.60;;;;;;10907275;32;20023;-71
2023/07/11 21:55:12;;;;;;;4.62;2.42;;;31.60;78.50;;;;;;10906197;32;20333;-71
2023/07/11 22:01:14;;;;;;;3.65;2.08;;;31.60;78.70;;;;;;10884238;32;20054;-71
2023/07/11 22:07:16;;;;;;;2.75;1.62;;;31.50;78.70;;;;;;10884343;32;20027;-71
2023/07/11 22:13:21;;;;;;;16.80;1.87;;;31.40;78.80;;;;;;10882361;32;20023;-71
2023/07/11 22:19:24;;;;;;;4.12;2.20;;;31.40;79.00;;;;;;10883041;32;20019;-71
2023/07/11 22:25:26;;;;;;;5.75;3.45;;;31.30;79.30;;;;;;10907325;32;20015;-71
2023/07/11 22:31:28;;;;;;;3.67;2.25;;;31.30;79.90;;;;;;10876691;32;20029;-71
2023/07/11 22:37:30;;;;;;;4.40;2.65;;;31.20;80.40;;;;;;10865007;32;20110;-71
2023/07/11 22:43:32;;;;;;;4.10;2.30;;;31.10;80.70;;;;;;10875643;32;20035;-71
2023/07/11 22:49:34;;;;;;;3.92;2.53;;;31.10;80.60;;;;;;10876072;32;20024;-71
2023/07/11 22:55:38;;;;;;;3.25;2.12;;;31.00;80.80;;;;;;10902886;32;20027;-71
2023/07/11 23:01:40;;;;;;;4.62;2.58;;;31.00;80.90;;;;;;10904805;32;20459;-68
2023/07/11 23:07:43;;;;;;;5.12;3.25;;;30.90;81.00;;;;;;10904385;32;20041;-72
2023/07/11 23:13:46;;;;;;;6.68;3.55;;;30.80;81.20;;;;;;10904517;32;20318;-71
2023/07/11 23:19:48;;;;;;;3.75;2.50;;;30.60;81.30;;;;;;10891044;32;20023;-71
2023/07/11 23:25:51;;;;;;;5.47;3.00;;;30.70;81.50;;;;;;10904257;32;20330;-71
2023/07/11 23:31:53;;;;;;;3.72;2.08;;;30.70;81.80;;;;;;10455397;27;11866454;-71
2023/07/11 23:37:57;;;;;;;5.35;2.58;;;30.70;81.70;;;;;;10787642;33;20434;-71
2023/07/11 23:43:59;;;;;;;3.10;2.33;;;30.60;81.60;;;;;;10789354;33;20326;-71
2023/07/11 23:50:01;;;;;;;5.95;3.40;;;30.40;81.90;;;;;;10789803;33;20245;-71
